createdAt,value
2022-11-06T00:01:15.549Z,22.63
2022-11-06T00:03:47.990Z,18.48
2022-11-06T00:06:38.335Z,23.10
2022-11-06T00:09:12.353Z,25.40
2022-11-06T00:11:44.733Z,26.92
2022-11-06T00:14:18.048Z,21.65
2022-11-06T00:16:50.405Z,21.63
2022-11-06T00:19:22.766Z,25.08
2022-11-06T00:21:55.117Z,19.85
2022-11-06T00:24:27.513Z,14.50
2022-11-06T00:26:59.924Z,14.57
2022-11-06T00:29:32.949Z,16.98
2022-11-06T00:32:05.309Z,15.05
2022-11-06T00:34:37.635Z,15.60
2022-11-06T00:37:10.262Z,17.30
2022-11-06T00:39:42.614Z,17.77
2022-11-06T00:42:14.994Z,17.17
2022-11-06T00:44:48.470Z,16.55
2022-11-06T00:47:20.863Z,16.23
2022-11-06T00:49:53.265Z,15.10
2022-11-06T00:52:25.623Z,15.70
2022-11-06T00:54:57.972Z,16.17
2022-11-06T00:57:30.349Z,16.50
2022-11-06T01:00:04.292Z,16.73
2022-11-06T01:02:37.876Z,17.00
2022-11-06T01:05:10.350Z,17.55
2022-11-06T01:07:42.794Z,18.30
2022-11-06T01:10:15.174Z,18.00
2022-11-06T01:12:47.537Z,17.08
2022-11-06T01:15:20.555Z,19.17
2022-11-06T01:17:52.924Z,18.88
2022-11-06T01:20:25.639Z,20.05
2022-11-06T01:22:58.028Z,17.08
2022-11-06T01:25:30.472Z,17.50
2022-11-06T01:28:02.972Z,21.60
2022-11-06T01:30:37.210Z,17.40
2022-11-06T01:33:09.564Z,15.18
2022-11-06T01:35:44.908Z,16.83
2022-11-06T01:38:17.997Z,18.13
2022-11-06T01:40:50.512Z,18.55
2022-11-06T01:43:24.963Z,18.05
2022-11-06T01:45:58.085Z,16.23
2022-11-06T01:48:30.574Z,16.20
2022-11-06T01:51:03.165Z,17.38
2022-11-06T01:53:37.085Z,15.88
2022-11-06T01:56:12.062Z,16.13
2022-11-06T01:58:47.340Z,15.40
2022-11-06T02:01:20.554Z,13.73
2022-11-06T02:03:57.595Z,10.75
2022-11-06T02:06:31.181Z,9.23
2022-11-06T02:09:10.521Z,11.43
2022-11-06T02:11:45.060Z,11.02
2022-11-06T02:14:28.284Z,12.23
2022-11-06T02:17:09.042Z,14.20
2022-11-06T02:19:54.161Z,13.95
2022-11-06T02:22:39.837Z,15.18
2022-11-06T02:25:19.525Z,11.82
2022-11-06T02:28:02.461Z,8.93
2022-11-06T02:30:41.293Z,9.60
2022-11-06T02:33:16.588Z,9.98
2022-11-06T02:35:52.897Z,11.10
2022-11-06T02:38:30.456Z,11.80
2022-11-06T02:41:06.655Z,13.18
2022-11-06T02:43:44.147Z,13.40
2022-11-06T02:46:20.454Z,13.85
2022-11-06T02:48:58.668Z,10.38
2022-11-06T02:51:36.048Z,10.85
2022-11-06T02:54:10.433Z,10.85
2022-11-06T02:56:45.764Z,10.77
2022-11-06T02:59:21.813Z,11.43
2022-11-06T03:01:58.548Z,10.50
2022-11-06T03:04:37.395Z,10.73
2022-11-06T03:07:15.707Z,10.27
2022-11-06T03:09:49.206Z,10.38
2022-11-06T03:12:27.522Z,11.50
2022-11-06T03:15:10.998Z,12.55
2022-11-06T03:17:50.222Z,12.13
2022-11-06T03:20:29.468Z,12.63
2022-11-06T03:23:10.621Z,11.40
2022-11-06T03:25:50.834Z,12.98
2022-11-06T03:28:29.414Z,12.82
2022-11-06T03:31:06.383Z,12.13
2022-11-06T03:33:44.113Z,12.45
2022-11-06T03:36:22.975Z,11.45
2022-11-06T03:39:04.082Z,10.63
2022-11-06T03:41:42.081Z,12.48
2022-11-06T03:44:17.773Z,10.48
2022-11-06T03:46:59.864Z,11.45
2022-11-06T03:49:37.171Z,10.30
2022-11-06T03:52:13.278Z,9.57
2022-11-06T03:54:54.380Z,11.35
2022-11-06T03:57:33.770Z,10.38
2022-11-06T04:00:08.402Z,10.63
2022-11-06T04:02:52.537Z,10.00
2022-11-06T04:05:25.084Z,8.70
2022-11-06T04:08:16.214Z,9.15
2022-11-06T04:11:10.364Z,9.93
2022-11-06T04:14:01.271Z,10.43
2022-11-06T04:16:36.316Z,9.30
2022-11-06T04:19:15.536Z,11.57
2022-11-06T04:22:18.028Z,11.70
2022-11-06T04:25:21.675Z,10.05
2022-11-06T04:28:06.368Z,9.52
2022-11-06T04:30:45.602Z,10.45
2022-11-06T04:33:25.512Z,10.10
2022-11-06T04:36:06.739Z,11.20
2022-11-06T04:38:46.943Z,10.65
2022-11-06T04:41:33.588Z,12.32
2022-11-06T04:44:09.951Z,10.63
2022-11-06T04:46:46.942Z,9.35
2022-11-06T04:49:21.354Z,8.20
2022-11-06T04:51:55.113Z,9.27
2022-11-06T04:54:27.854Z,10.23
2022-11-06T04:57:01.264Z,8.38
2022-11-06T04:59:36.157Z,9.13
2022-11-06T05:02:08.695Z,7.88
2022-11-06T05:04:41.120Z,8.32
2022-11-06T05:07:14.440Z,6.38
2022-11-06T05:09:46.777Z,8.73
2022-11-06T05:12:19.162Z,7.60
2022-11-06T05:14:51.530Z,9.15
2022-11-06T05:17:23.808Z,11.65
2022-11-06T05:19:56.172Z,10.32
2022-11-06T05:22:47.424Z,13.10
2022-11-06T05:25:19.772Z,12.15
2022-11-06T05:27:52.085Z,8.95
2022-11-06T05:30:24.966Z,9.73
2022-11-06T05:32:57.288Z,9.20
2022-11-06T05:35:29.645Z,9.10
2022-11-06T05:38:03.202Z,8.65
2022-11-06T05:40:35.516Z,9.05
2022-11-06T05:43:07.912Z,9.48
2022-11-06T05:45:40.238Z,9.35
2022-11-06T05:48:12.777Z,10.45
2022-11-06T05:50:45.328Z,10.40
2022-11-06T05:53:21.506Z,10.93
2022-11-06T05:55:53.902Z,9.65
2022-11-06T05:58:26.615Z,11.57
2022-11-06T06:00:59.101Z,10.38
2022-11-06T06:03:31.785Z,10.38
2022-11-06T06:06:04.868Z,9.13
2022-11-06T06:08:38.455Z,10.88
2022-11-06T06:11:10.822Z,10.95
2022-11-06T06:13:43.543Z,10.75
2022-11-06T06:16:15.918Z,8.88
2022-11-06T06:18:49.633Z,9.65
2022-11-06T06:21:22.043Z,10.80
2022-11-06T06:23:55.117Z,9.70
2022-11-06T06:26:27.658Z,9.73
2022-11-06T06:29:01.444Z,9.02
2022-11-06T06:31:33.847Z,8.05
2022-11-06T06:34:06.238Z,10.57
2022-11-06T06:36:38.605Z,10.90
2022-11-06T06:39:11.650Z,10.70
2022-11-06T06:41:43.962Z,10.52
2022-11-06T06:44:16.553Z,11.23
2022-11-06T06:46:48.992Z,10.27
2022-11-06T06:49:21.333Z,10.70
2022-11-06T06:51:54.546Z,10.90
2022-11-06T06:54:27.609Z,10.57
2022-11-06T06:56:59.954Z,10.68
2022-11-06T06:59:32.365Z,11.30
2022-11-06T07:02:04.862Z,10.38
2022-11-06T07:04:37.461Z,11.07
2022-11-06T07:07:09.805Z,12.32
2022-11-06T07:09:42.802Z,11.00
2022-11-06T07:12:15.165Z,11.60
2022-11-06T07:14:47.515Z,11.63
2022-11-06T07:17:19.854Z,11.85
2022-11-06T07:19:52.225Z,12.10
2022-11-06T07:22:32.364Z,12.25
2022-11-06T07:25:10.076Z,12.50
2022-11-06T07:27:42.423Z,11.63
2022-11-06T07:30:14.897Z,11.90
2022-11-06T07:32:47.287Z,12.85
2022-11-06T07:35:19.628Z,12.82
2022-11-06T07:37:51.933Z,11.68
2022-11-06T07:40:24.925Z,10.65
2022-11-06T07:43:03.570Z,11.55
2022-11-06T07:45:36.819Z,11.48
2022-11-06T07:48:09.202Z,12.10
2022-11-06T07:50:41.593Z,11.88
2022-11-06T07:53:14.124Z,11.15
2022-11-06T07:55:50.960Z,11.85
2022-11-06T07:58:24.350Z,12.10
2022-11-06T08:00:58.378Z,10.95
2022-11-06T08:03:31.305Z,11.52
2022-11-06T08:06:04.616Z,10.23
2022-11-06T08:08:36.970Z,11.00
2022-11-06T08:11:11.413Z,11.40
2022-11-06T08:13:43.842Z,11.75
2022-11-06T08:16:16.179Z,10.80
2022-11-06T08:18:48.502Z,10.23
2022-11-06T08:21:20.815Z,10.05
2022-11-06T08:23:53.169Z,10.68
2022-11-06T08:26:26.861Z,11.88
2022-11-06T08:28:59.314Z,12.50
2022-11-06T08:31:31.718Z,19.30
2022-11-06T08:34:04.092Z,37.80
2022-11-06T08:36:38.668Z,16.30
2022-11-06T08:39:11.080Z,13.68
2022-11-06T08:41:44.701Z,12.23
2022-11-06T08:44:17.257Z,12.88
2022-11-06T08:46:52.165Z,14.45
2022-11-06T08:49:24.759Z,13.13
2022-11-06T08:51:57.116Z,14.80
2022-11-06T08:54:29.575Z,14.68
2022-11-06T08:57:03.348Z,14.30
2022-11-06T08:59:35.746Z,13.35
2022-11-06T09:02:12.205Z,15.82
2022-11-06T09:04:44.644Z,14.90
2022-11-06T09:07:17.228Z,14.27
2022-11-06T09:09:49.614Z,12.20
2022-11-06T09:12:22.647Z,12.35
2022-11-06T09:14:55.048Z,17.75
2022-11-06T09:17:27.559Z,21.50
2022-11-06T09:19:59.914Z,13.50
2022-11-06T09:22:32.304Z,16.02
2022-11-06T09:25:05.845Z,14.88
2022-11-06T09:27:43.813Z,16.65
2022-11-06T09:30:17.797Z,16.98
2022-11-06T09:32:51.619Z,13.45
2022-11-06T09:35:25.301Z,12.75
2022-11-06T09:38:01.246Z,15.38
2022-11-06T09:40:35.991Z,14.70
2022-11-06T09:43:50.201Z,20.00
2022-11-06T09:46:22.205Z,20.13
2022-11-06T09:48:58.515Z,19.40
2022-11-06T09:51:39.781Z,16.45
2022-11-06T09:54:17.369Z,13.65
2022-11-06T09:56:55.330Z,14.88
2022-11-06T09:59:30.915Z,16.20
2022-11-06T10:02:18.817Z,18.30
2022-11-06T10:04:59.041Z,14.73
2022-11-06T10:07:34.838Z,15.18
2022-11-06T10:10:14.440Z,19.73
2022-11-06T10:13:08.636Z,18.50
2022-11-06T10:15:48.889Z,17.95
2022-11-06T10:18:30.797Z,20.83
2022-11-06T10:21:11.011Z,20.88
2022-11-06T10:23:47.901Z,23.58
2022-11-06T10:26:28.648Z,20.08
2022-11-06T10:29:23.317Z,27.10
2022-11-06T10:32:27.753Z,22.58
2022-11-06T10:35:03.647Z,22.35
2022-11-06T10:37:42.554Z,21.65
2022-11-06T10:40:18.306Z,18.03
2022-11-06T10:43:00.213Z,17.60
2022-11-06T10:45:35.086Z,17.50
2022-11-06T10:48:26.002Z,18.30
2022-11-06T10:51:27.363Z,17.40
2022-11-06T10:54:13.221Z,16.30
2022-11-06T10:57:01.590Z,15.73
2022-11-06T10:59:34.163Z,14.40
2022-11-06T11:02:22.285Z,14.10
2022-11-06T11:04:58.152Z,15.23
2022-11-06T11:07:33.861Z,17.42
2022-11-06T11:10:25.204Z,13.98
2022-11-06T11:13:04.077Z,15.75
2022-11-06T11:15:46.423Z,13.90
2022-11-06T11:18:22.829Z,16.63
2022-11-06T11:21:06.348Z,15.75
2022-11-06T11:23:38.967Z,15.95
2022-11-06T11:26:22.065Z,18.17
2022-11-06T11:28:56.527Z,16.77
2022-11-06T11:31:31.525Z,19.63
2022-11-06T11:34:14.474Z,16.58
2022-11-06T11:36:57.432Z,18.92
2022-11-06T11:39:32.424Z,17.17
2022-11-06T11:42:32.129Z,16.77
2022-11-06T11:47:49.263Z,17.10
2022-11-06T11:50:30.883Z,15.85
2022-11-06T11:53:10.827Z,14.02
2022-11-06T11:55:45.836Z,19.67
2022-11-06T11:58:22.456Z,17.98
2022-11-06T12:00:57.868Z,14.80
2022-11-06T12:03:34.415Z,14.40
2022-11-06T12:06:10.046Z,13.98
2022-11-06T12:08:48.688Z,10.77
2022-11-06T12:11:24.274Z,9.18
2022-11-06T12:14:39.381Z,8.82
2022-11-06T12:17:17.681Z,8.85
2022-11-06T12:19:54.235Z,8.98
2022-11-06T12:22:32.357Z,8.60
2022-11-06T12:25:12.582Z,9.55
2022-11-06T12:27:50.971Z,23.90
2022-11-06T12:30:23.525Z,8.65
2022-11-06T12:33:05.882Z,9.40
2022-11-06T12:35:41.976Z,9.52
2022-11-06T12:38:21.302Z,9.65
2022-11-06T12:41:00.788Z,9.45
2022-11-06T12:43:40.138Z,10.90
2022-11-06T12:46:38.254Z,13.45
2022-11-06T12:49:56.131Z,9.82
2022-11-06T12:52:42.204Z,10.85
2022-11-06T12:55:22.805Z,11.48
2022-11-06T12:58:09.499Z,9.40
2022-11-06T13:00:54.589Z,10.95
2022-11-06T13:03:52.145Z,11.85
2022-11-06T13:06:36.345Z,12.40
2022-11-06T13:09:15.925Z,17.38
2022-11-06T13:11:55.146Z,13.38
2022-11-06T13:14:32.182Z,10.73
2022-11-06T13:17:12.825Z,12.48
2022-11-06T13:19:53.661Z,10.07
2022-11-06T13:22:29.890Z,11.85
2022-11-06T13:25:10.647Z,10.38
2022-11-06T13:27:51.360Z,11.00
2022-11-06T13:30:26.133Z,11.60
2022-11-06T13:33:05.936Z,11.80
2022-11-06T13:35:41.748Z,12.32
2022-11-06T13:38:20.665Z,12.93
2022-11-06T13:41:02.193Z,12.63
2022-11-06T13:43:40.912Z,10.00
2022-11-06T13:46:25.013Z,9.52
2022-11-06T13:49:08.269Z,9.77
2022-11-06T13:51:50.480Z,9.80
2022-11-06T13:54:32.286Z,14.38
2022-11-06T13:57:35.953Z,10.88
2022-11-06T14:00:17.626Z,10.98
2022-11-06T14:03:39.142Z,27.30
2022-11-06T14:06:17.645Z,11.88
2022-11-06T14:08:53.139Z,10.45
2022-11-06T14:11:28.854Z,11.60
2022-11-06T14:14:03.377Z,11.75
2022-11-06T14:16:37.509Z,8.75
2022-11-06T14:19:14.205Z,11.75
2022-11-06T14:21:49.344Z,12.48
2022-11-06T14:24:39.841Z,9.70
2022-11-06T14:27:33.096Z,8.38
2022-11-06T14:31:11.030Z,9.60
2022-11-06T14:33:58.501Z,8.25
2022-11-06T14:36:36.090Z,8.90
2022-11-06T14:39:13.312Z,9.60
2022-11-06T14:41:57.938Z,7.57
2022-11-06T14:44:43.018Z,8.38
2022-11-06T14:47:30.714Z,9.15
2022-11-06T14:50:08.177Z,6.78
2022-11-06T14:52:45.405Z,7.22
2022-11-06T14:55:28.271Z,7.13
2022-11-06T14:58:14.359Z,10.30
2022-11-06T15:00:51.922Z,7.70
2022-11-06T15:03:30.854Z,10.05
2022-11-06T15:06:19.728Z,10.20
2022-11-06T15:08:58.542Z,9.05
2022-11-06T15:12:08.500Z,9.23
2022-11-06T15:14:55.039Z,7.40
2022-11-06T15:17:31.972Z,8.68
2022-11-06T15:20:21.263Z,12.27
2022-11-06T15:23:18.017Z,10.32
2022-11-06T15:26:00.572Z,8.65
2022-11-06T15:28:41.370Z,7.55
2022-11-06T15:31:16.681Z,9.15
2022-11-06T15:33:59.045Z,10.52
2022-11-06T15:36:38.424Z,9.43
2022-11-06T15:39:31.588Z,10.73
2022-11-06T15:42:07.782Z,7.10
2022-11-06T15:44:41.972Z,6.13
2022-11-06T15:47:21.761Z,10.07
2022-11-06T15:52:40.484Z,7.00
2022-11-06T15:55:13.457Z,5.90
2022-11-06T15:57:45.804Z,5.72
2022-11-06T16:00:20.261Z,30.00
2022-11-06T16:02:58.866Z,16.60
2022-11-06T16:05:34.097Z,13.25
2022-11-06T16:08:07.551Z,13.93
2022-11-06T16:10:41.013Z,19.42
2022-11-06T16:13:16.487Z,14.30
2022-11-06T16:15:54.576Z,17.15
2022-11-06T16:18:29.562Z,16.48
2022-11-06T16:21:11.388Z,18.02
2022-11-06T16:23:49.395Z,18.38
2022-11-06T16:26:26.481Z,23.77
2022-11-06T16:29:00.372Z,24.85
2022-11-06T16:31:33.252Z,24.65
2022-11-06T16:34:07.875Z,27.15
2022-11-06T16:36:52.660Z,29.00
2022-11-06T16:39:50.576Z,30.05
2022-11-06T16:42:26.264Z,27.60
2022-11-06T16:45:08.357Z,27.48
2022-11-06T16:47:40.717Z,28.98
2022-11-06T16:50:42.619Z,31.08
2022-11-06T16:53:19.444Z,24.00
2022-11-06T16:55:58.038Z,33.33
2022-11-06T16:58:34.064Z,36.00
2022-11-06T17:01:06.861Z,41.88
2022-11-06T17:03:45.661Z,35.08
2022-11-06T17:06:21.995Z,38.08
2022-11-06T17:09:09.434Z,35.10
2022-11-06T17:11:43.062Z,30.88
2022-11-06T17:14:18.918Z,29.95
2022-11-06T17:16:53.142Z,28.83
2022-11-06T17:19:26.741Z,28.67
2022-11-06T17:21:59.065Z,29.85
2022-11-06T17:24:36.383Z,29.67
2022-11-06T17:27:10.312Z,27.02
2022-11-06T17:29:42.791Z,18.58
2022-11-06T17:32:15.140Z,22.02
2022-11-06T17:34:47.465Z,23.08
2022-11-06T17:37:21.353Z,19.17
2022-11-06T17:39:53.751Z,23.40
2022-11-06T17:42:26.830Z,31.95
2022-11-06T17:44:59.157Z,58.35
2022-11-06T17:47:31.573Z,53.65
2022-11-06T17:50:04.424Z,56.20
2022-11-06T17:52:36.765Z,58.00
2022-11-06T17:55:09.129Z,56.80
2022-11-06T17:57:42.606Z,61.53
2022-11-06T18:00:15.255Z,46.83
2022-11-06T18:03:01.034Z,49.40
2022-11-06T18:05:35.261Z,45.22
2022-11-06T18:08:12.119Z,53.60
2022-11-06T18:10:44.699Z,36.08
2022-11-06T18:13:17.773Z,32.45
2022-11-06T18:15:51.810Z,23.80
2022-11-06T18:18:24.208Z,16.77
2022-11-06T18:20:56.886Z,13.57
2022-11-06T18:23:29.251Z,13.98
2022-11-06T18:26:01.732Z,13.20
2022-11-06T18:28:34.799Z,13.70
2022-11-06T18:31:07.205Z,13.25
2022-11-06T18:33:39.609Z,12.82
2022-11-06T18:36:13.486Z,12.52
2022-11-06T18:38:46.111Z,13.07
2022-11-06T18:41:20.693Z,12.93
2022-11-06T18:43:56.750Z,12.07
2022-11-06T18:46:29.580Z,11.63
2022-11-06T18:49:02.052Z,11.38
2022-11-06T18:51:36.194Z,12.05
2022-11-06T18:54:10.907Z,12.88
2022-11-06T18:56:43.281Z,12.70
2022-11-06T18:59:18.870Z,12.75
2022-11-06T19:01:51.366Z,14.32
2022-11-06T19:04:25.831Z,14.57
2022-11-06T19:06:58.244Z,14.77
2022-11-06T19:09:30.652Z,13.88
2022-11-06T19:12:03.079Z,15.05
2022-11-06T19:14:36.215Z,15.40
2022-11-06T19:17:08.584Z,16.60
2022-11-06T19:19:41.043Z,18.55
2022-11-06T19:22:13.409Z,17.30
2022-11-06T19:24:46.005Z,15.35
2022-11-06T19:27:18.366Z,15.20
2022-11-06T19:29:52.080Z,16.58
2022-11-06T19:32:24.579Z,16.75
2022-11-06T19:34:57.010Z,14.35
2022-11-06T19:37:31.572Z,13.25
2022-11-06T19:40:06.285Z,13.35
2022-11-06T19:42:38.964Z,14.23
2022-11-06T19:45:12.113Z,14.35
2022-11-06T19:47:44.457Z,13.52
2022-11-06T19:50:25.018Z,13.65
2022-11-06T19:53:05.705Z,13.33
2022-11-06T19:55:38.811Z,13.35
2022-11-06T19:58:11.251Z,13.82
2022-11-06T20:00:44.676Z,13.68
2022-11-06T20:03:17.334Z,14.00
2022-11-06T20:05:51.726Z,16.40
2022-11-06T20:08:24.080Z,18.45
2022-11-06T20:11:02.530Z,14.60
2022-11-06T20:13:35.893Z,13.77
2022-11-06T20:16:11.437Z,14.32
2022-11-06T20:18:44.207Z,32.67
2022-11-06T20:21:16.607Z,19.95
2022-11-06T20:23:49.312Z,17.35
2022-11-06T20:26:22.305Z,15.15
2022-11-06T20:28:54.658Z,15.30
2022-11-06T20:31:27.946Z,15.15
2022-11-06T20:34:00.546Z,15.15
2022-11-06T20:36:34.866Z,16.85
2022-11-06T20:39:08.467Z,13.77
2022-11-06T20:41:41.024Z,15.45
2022-11-06T20:44:13.413Z,15.07
2022-11-06T20:46:47.992Z,15.48
2022-11-06T20:49:20.536Z,15.50
2022-11-06T20:52:13.243Z,16.63
2022-11-06T20:54:47.565Z,16.63
2022-11-06T20:57:20.079Z,17.70
2022-11-06T20:59:52.498Z,16.75
2022-11-06T21:02:25.868Z,16.77
2022-11-06T21:04:58.313Z,16.25
2022-11-06T21:07:30.661Z,15.95
2022-11-06T21:10:03.353Z,17.95
2022-11-06T21:12:35.773Z,17.13
2022-11-06T21:15:08.573Z,19.23
2022-11-06T21:17:42.346Z,19.92
2022-11-06T21:20:16.947Z,19.35
2022-11-06T21:22:52.741Z,22.95
2022-11-06T21:25:25.112Z,22.02
2022-11-06T21:27:57.566Z,22.48
2022-11-06T21:30:29.940Z,18.67
2022-11-06T21:33:02.952Z,17.17
2022-11-06T21:35:35.814Z,22.48
2022-11-06T21:38:08.467Z,17.75
2022-11-06T21:40:40.866Z,19.55
2022-11-06T21:43:13.575Z,20.08
2022-11-06T21:45:46.165Z,20.58
2022-11-06T21:48:32.846Z,21.35
2022-11-06T21:51:13.596Z,20.95
2022-11-06T21:54:04.212Z,22.25
2022-11-06T21:56:37.797Z,29.95
2022-11-06T21:59:12.298Z,32.08
2022-11-06T22:01:44.830Z,30.33
2022-11-06T22:04:18.005Z,24.67
2022-11-06T22:06:51.603Z,23.67
2022-11-06T22:09:26.022Z,24.20
2022-11-06T22:11:59.219Z,22.20
2022-11-06T22:14:31.684Z,25.85
2022-11-06T22:17:04.045Z,24.17
2022-11-06T22:19:37.121Z,23.23
2022-11-06T22:22:09.470Z,22.65
2022-11-06T22:24:41.857Z,25.25
2022-11-06T22:27:14.221Z,25.73
2022-11-06T22:29:46.584Z,25.48
2022-11-06T22:32:18.930Z,21.33
2022-11-06T22:34:52.132Z,21.70
2022-11-06T22:37:24.506Z,25.15
2022-11-06T22:39:56.874Z,21.63
2022-11-06T22:42:29.247Z,20.70
2022-11-06T22:45:01.786Z,18.50
2022-11-06T22:47:34.161Z,17.17
2022-11-06T22:50:08.217Z,16.70
2022-11-06T22:52:40.519Z,17.17
2022-11-06T22:55:12.873Z,16.00
2022-11-06T22:57:45.202Z,16.63
2022-11-06T23:00:21.681Z,15.82
2022-11-06T23:02:54.110Z,15.30
2022-11-06T23:05:27.337Z,18.48
2022-11-06T23:07:59.652Z,18.38
2022-11-06T23:10:34.194Z,17.48
2022-11-06T23:13:06.541Z,16.05
2022-11-06T23:15:38.928Z,15.98
2022-11-06T23:18:11.422Z,15.75
2022-11-06T23:20:44.565Z,15.85
2022-11-06T23:23:17.157Z,17.10
2022-11-06T23:25:49.645Z,15.50
2022-11-06T23:28:22.009Z,16.33
2022-11-06T23:30:54.381Z,17.05
2022-11-06T23:33:26.717Z,15.55
2022-11-06T23:36:03.852Z,16.25
2022-11-06T23:38:36.313Z,16.38
2022-11-06T23:41:24.787Z,16.75
2022-11-06T23:43:58.256Z,14.88
2022-11-06T23:46:32.397Z,15.45
2022-11-06T23:49:04.765Z,15.10
2022-11-06T23:51:37.811Z,14.77
2022-11-06T23:54:10.228Z,15.50
2022-11-06T23:56:42.623Z,15.00
2022-11-06T23:59:15.125Z,16.63
